Etusivu
METAR-TAF:

METAR-TAF

Lentoasemat :

Driggs, Idaho, Yhdysvallat

Leveyspiiri: 43-44-33N, Pituuspiiri: 111-05-51W, korkeus merenpinnasta: 1899 m

Tämänhetkinen sää

Tämä raportti tehtiin 42 minuuttia sitten, kello 11.56 UTC
Tuuli 10 kn etelästä/kaakosta
Lämpötila 7°C
Kosteus 53%
Ilmanpaine 1020 hPa
Näkyvyys: 16.1 km
selkeää

METAR: KDIJ 201156Z AUTO 15010KT 10SM CLR 07/M02 A3013 RMK AO2 SLP153 T00671017 10144 20061 53009 $

Aika: 06:38 (12:38 UTC)

Sääennuste

Tämä raportti tehtiin 1 tunti ja 18 minuuttia sitten, kello 11.20 UTC
Ennuste voimassa 20. päivästä klo 12 UTC - 21. päivään klo 12 UTC
Tuuli 8 kn etelästä
Näkyvyys: 10 km
selkeää
From 20. päivästä klo 2000 UTC
Tuuli 10 kn lännestä/lounaasta
Näkyvyys: 10 km
selkeää
From 21. päivästä klo 0300 UTC
Tuuli 6 kn kaakosta
Näkyvyys: 10 km
selkeää

TAF: KDIJ 201120Z 2012/2112 17008KT P6SM SKC FM202000 25010KT P6SM SKC FM210300 14006KT P6SM SKC AMD LTD TO CLD VIS AND WIND

Säähavainnot ja -ennusteet yli 4000 lentoasemalta (METAR- ja TAF-raportit).

Käytössä olevat sääasemat on merkitty karttaan keltaisilla ja punaisilla pisteillä.

Aseta hiiri pisteen päälle nähdäksesi sääaseman nimen.

Klikkaa sitten nähdäksesi säähavainnot ja -ennusteet.

Kartan vaihtaminen: klikkaa mustalla rastilla varustettuja vihreitä pisteitä, niin voit zoomata sisään; viivalla varustettua vihreää pistettä, niin voit zoomata ulos tai vihreitä nuolia, niin pääset viereisille kartoille.


METAR-TAF: